Time;durP1;ratioP1;P1;durP2;ratioP2;P2;SDS_P1;SDS_P2;PMS_P1;PMS_P2;Temp;Humidity;BMP_temperature;BMP_pressure;BME280_temperature;BME280_humidity;BME280_pressure;Samples;Min_cycle;Max_cycle;Signal;HPM_P1;HPM_P2
2022/02/21 00:00:29;;;;;;;;;;;21.70;34.00;;;;;;484031;246;1354;-39
2022/02/21 00:02:31;;;;;;;;;;;21.70;33.90;;;;;;483955;246;1150;-39
2022/02/21 00:04:32;;;;;;;;;;;21.70;33.90;;;;;;484297;246;1213;-39
2022/02/21 00:06:33;;;;;;;;;;;21.70;34.00;;;;;;483925;246;1240;-39
2022/02/21 00:08:35;;;;;;;;;;;21.70;33.90;;;;;;484329;246;2124;-39
2022/02/21 00:10:36;;;;;;;;;;;21.80;33.90;;;;;;484475;246;1104;-39
2022/02/21 00:12:37;;;;;;;;;;;21.80;33.90;;;;;;484465;246;1373;-39
2022/02/21 00:14:39;;;;;;;;;;;21.70;33.80;;;;;;484060;246;1084;-39
2022/02/21 00:16:40;;;;;;;;;;;21.70;33.80;;;;;;484456;246;1187;-39
2022/02/21 00:18:41;;;;;;;;;;;21.80;33.90;;;;;;484090;246;1077;-39
2022/02/21 00:20:43;;;;;;;;;;;21.70;33.80;;;;;;484082;246;1223;-39
2022/02/21 00:22:44;;;;;;;;;;;21.70;33.80;;;;;;484442;246;1221;-39
2022/02/21 00:24:45;;;;;;;;;;;21.70;33.80;;;;;;484521;246;1060;-39
2022/02/21 00:26:47;;;;;;;;;;;21.70;33.90;;;;;;484354;246;1330;-39
2022/02/21 00:28:48;;;;;;;;;;;21.70;33.80;;;;;;484346;246;2199;-39
2022/02/21 00:30:49;;;;;;;;;;;21.70;33.80;;;;;;484458;246;1169;-39
2022/02/21 00:32:51;;;;;;;;;;;21.70;33.80;;;;;;484234;246;1166;-39
2022/02/21 00:34:52;;;;;;;;;;;21.70;33.90;;;;;;484327;246;1270;-39
2022/02/21 00:36:54;;;;;;;;;;;21.70;34.00;;;;;;484385;246;1288;-39
2022/02/21 00:38:55;;;;;;;;;;;21.70;33.90;;;;;;484318;246;1045;-39
2022/02/21 00:40:56;;;;;;;;;;;21.70;33.90;;;;;;484108;246;1245;-39
2022/02/21 00:42:57;;;;;;;;;;;21.70;33.90;;;;;;484084;246;1079;-39
2022/02/21 00:45:00;;;;;;;;;;;21.70;33.90;;;;;;484507;246;1065;-39
2022/02/21 00:47:00;;;;;;;;;;;21.70;33.90;;;;;;483888;246;1989;-39
2022/02/21 00:49:03;;;;;;;;;;;21.80;33.90;;;;;;484048;246;2196;-39
2022/02/21 00:51:03;;;;;;;;;;;21.70;33.90;;;;;;483922;246;2011;-39
2022/02/21 00:53:05;;;;;;;;;;;21.80;33.90;;;;;;484486;246;1360;-39
2022/02/21 00:55:06;;;;;;;;;;;21.70;33.90;;;;;;484361;246;1064;-39
2022/02/21 00:57:07;;;;;;;;;;;21.70;33.90;;;;;;483892;246;1176;-39
2022/02/21 00:59:09;;;;;;;;;;;21.70;33.90;;;;;;483998;246;1034;-39
2022/02/21 01:01:10;;;;;;;;;;;21.70;33.90;;;;;;484435;246;1662;-39
2022/02/21 01:03:12;;;;;;;;;;;21.70;33.90;;;;;;484354;246;1132;-39
2022/02/21 01:05:13;;;;;;;;;;;21.70;33.80;;;;;;484310;246;1160;-39
2022/02/21 01:07:14;;;;;;;;;;;21.70;33.90;;;;;;484072;246;1212;-39
2022/02/21 01:09:16;;;;;;;;;;;21.70;33.90;;;;;;484471;246;2128;-39
2022/02/21 01:11:18;;;;;;;;;;;21.70;33.90;;;;;;484447;246;1274;-39
2022/02/21 01:13:18;;;;;;;;;;;21.70;33.90;;;;;;484454;246;2006;-39
2022/02/21 01:15:19;;;;;;;;;;;21.70;33.90;;;;;;484068;246;1086;-40
2022/02/21 01:17:22;;;;;;;;;;;21.70;33.90;;;;;;484159;246;1173;-39
2022/02/21 01:19:22;;;;;;;;;;;21.70;33.90;;;;;;483948;246;2391;-39
2022/02/21 01:21:23;;;;;;;;;;;21.70;33.80;;;;;;484073;246;1644;-39
2022/02/21 01:23:25;;;;;;;;;;;21.70;33.90;;;;;;484330;246;1027;-39
2022/02/21 01:25:26;;;;;;;;;;;21.70;33.80;;;;;;484493;246;1126;-39
2022/02/21 01:27:27;;;;;;;;;;;21.70;33.80;;;;;;483909;246;1323;-39
2022/02/21 01:29:29;;;;;;;;;;;21.70;33.80;;;;;;483930;246;2196;-39
2022/02/21 01:31:30;;;;;;;;;;;21.80;33.90;;;;;;484240;246;1470;-39
2022/02/21 01:33:31;;;;;;;;;;;21.70;33.80;;;;;;484489;246;1125;-39
2022/02/21 01:35:33;;;;;;;;;;;21.70;33.90;;;;;;483997;246;1320;-39
2022/02/21 01:37:34;;;;;;;;;;;21.70;33.90;;;;;;484417;246;1168;-39
2022/02/21 01:39:35;;;;;;;;;;;21.70;33.90;;;;;;484490;246;1052;-39
2022/02/21 01:41:37;;;;;;;;;;;21.70;33.90;;;;;;484380;246;1365;-39
2022/02/21 01:43:39;;;;;;;;;;;21.70;33.90;;;;;;484302;246;1543;-39
2022/02/21 01:45:39;;;;;;;;;;;21.70;33.90;;;;;;484011;246;1840;-39
2022/02/21 01:47:41;;;;;;;;;;;21.70;33.90;;;;;;484117;246;1155;-39
2022/02/21 01:49:42;;;;;;;;;;;21.70;33.90;;;;;;484519;246;2199;-39
2022/02/21 01:51:43;;;;;;;;;;;21.70;33.90;;;;;;483985;246;1310;-39
2022/02/21 01:53:45;;;;;;;;;;;21.70;33.90;;;;;;484460;246;1233;-39
2022/02/21 01:55:46;;;;;;;;;;;21.70;33.90;;;;;;484302;246;1156;-39
2022/02/21 01:57:48;;;;;;;;;;;21.70;33.90;;;;;;484462;246;1297;-39
2022/02/21 01:59:49;;;;;;;;;;;21.60;33.90;;;;;;484052;246;1084;-39
2022/02/21 02:01:51;;;;;;;;;;;21.60;33.90;;;;;;484058;246;1633;-39
2022/02/21 02:03:52;;;;;;;;;;;21.70;34.00;;;;;;484431;246;1030;-39
2022/02/21 02:05:53;;;;;;;;;;;21.70;33.90;;;;;;484294;246;1267;-39
2022/02/21 02:07:55;;;;;;;;;;;21.70;34.00;;;;;;483960;246;1158;-39
2022/02/21 02:09:56;;;;;;;;;;;21.70;34.00;;;;;;484093;246;2204;-39
2022/02/21 02:11:57;;;;;;;;;;;21.70;33.90;;;;;;484447;246;1113;-39
2022/02/21 02:13:58;;;;;;;;;;;21.70;33.80;;;;;;484494;246;1022;-39
2022/02/21 02:16:00;;;;;;;;;;;21.70;33.90;;;;;;484026;246;1318;-39
2022/02/21 02:18:02;;;;;;;;;;;21.70;33.90;;;;;;484412;246;1207;-39
2022/02/21 02:20:02;;;;;;;;;;;21.70;33.90;;;;;;484453;246;2340;-39
2022/02/21 02:22:04;;;;;;;;;;;21.70;33.90;;;;;;483971;246;1242;-39
2022/02/21 02:24:05;;;;;;;;;;;21.70;33.90;;;;;;484175;246;1010;-39
2022/02/21 02:26:06;;;;;;;;;;;21.70;33.90;;;;;;484004;246;1045;-39
2022/02/21 02:28:08;;;;;;;;;;;21.70;33.80;;;;;;484402;246;1413;-39
2022/02/21 02:30:09;;;;;;;;;;;21.70;33.80;;;;;;484470;246;2176;-39
2022/02/21 02:32:10;;;;;;;;;;;21.80;33.90;;;;;;484063;246;1327;-39
2022/02/21 02:34:12;;;;;;;;;;;21.70;33.90;;;;;;484437;246;1043;-39
2022/02/21 02:36:13;;;;;;;;;;;21.70;33.80;;;;;;484315;246;1281;-39
2022/02/21 02:38:15;;;;;;;;;;;21.70;33.90;;;;;;484447;246;1233;-39
2022/02/21 02:40:16;;;;;;;;;;;21.70;33.90;;;;;;484500;246;1083;-39
2022/02/21 02:42:17;;;;;;;;;;;21.70;33.90;;;;;;484427;246;1170;-39
2022/02/21 02:44:19;;;;;;;;;;;21.70;33.90;;;;;;483992;246;1202;-39
2022/02/21 02:46:20;;;;;;;;;;;21.70;33.80;;;;;;484420;246;1324;-39
2022/02/21 02:48:21;;;;;;;;;;;21.70;33.90;;;;;;483996;246;1139;-39
2022/02/21 02:50:23;;;;;;;;;;;21.70;33.90;;;;;;484017;246;2200;-39
2022/02/21 02:52:24;;;;;;;;;;;21.80;33.80;;;;;;483924;246;1314;-39
2022/02/21 02:54:25;;;;;;;;;;;21.70;33.80;;;;;;484444;246;1079;-39
2022/02/21 02:56:27;;;;;;;;;;;21.80;33.80;;;;;;484433;246;1172;-39
2022/02/21 02:58:28;;;;;;;;;;;21.80;33.90;;;;;;484371;246;1037;-39
2022/02/21 03:00:29;;;;;;;;;;;21.70;33.80;;;;;;484004;246;1191;-39
2022/02/21 03:02:30;;;;;;;;;;;21.70;33.80;;;;;;484007;246;1126;-39
2022/02/21 03:04:32;;;;;;;;;;;21.70;33.90;;;;;;484495;246;1146;-39
2022/02/21 03:06:34;;;;;;;;;;;21.70;33.80;;;;;;484020;242;1136;-39
2022/02/21 03:08:35;;;;;;;;;;;21.70;33.80;;;;;;484029;246;1216;-39
2022/02/21 03:10:36;;;;;;;;;;;21.70;33.80;;;;;;484019;246;2390;-39
2022/02/21 03:12:38;;;;;;;;;;;21.70;33.80;;;;;;484462;246;1149;-39
2022/02/21 03:14:39;;;;;;;;;;;21.80;33.80;;;;;;484495;246;1328;-39
2022/02/21 03:16:40;;;;;;;;;;;21.70;33.80;;;;;;484409;246;1380;-40
2022/02/21 03:18:41;;;;;;;;;;;21.70;33.80;;;;;;483982;246;1218;-39
2022/02/21 03:20:43;;;;;;;;;;;21.70;33.90;;;;;;484467;246;1251;-39
2022/02/21 03:22:44;;;;;;;;;;;21.70;33.90;;;;;;483971;246;1301;-39
2022/02/21 03:24:45;;;;;;;;;;;21.80;33.90;;;;;;484048;246;1302;-39
2022/02/21 03:26:47;;;;;;;;;;;21.70;33.80;;;;;;484000;246;1320;-39
2022/02/21 03:28:48;;;;;;;;;;;21.70;33.90;;;;;;484215;246;1227;-39
2022/02/21 03:30:49;;;;;;;;;;;21.70;33.90;;;;;;483988;246;2208;-39
2022/02/21 03:32:51;;;;;;;;;;;21.70;33.80;;;;;;484445;246;1063;-39
2022/02/21 03:34:52;;;;;;;;;;;21.70;33.80;;;;;;484021;246;1074;-39
2022/02/21 03:36:53;;;;;;;;;;;21.70;33.90;;;;;;484088;246;1329;-39
2022/02/21 03:38:55;;;;;;;;;;;21.70;33.80;;;;;;484011;246;1085;-39
2022/02/21 03:40:56;;;;;;;;;;;21.70;33.80;;;;;;484391;246;1165;-39
2022/02/21 03:42:58;;;;;;;;;;;21.70;33.80;;;;;;484000;246;1131;-39
2022/02/21 03:44:59;;;;;;;;;;;21.70;33.90;;;;;;484012;246;1070;-39
2022/02/21 03:47:00;;;;;;;;;;;21.70;33.80;;;;;;484084;246;1642;-39
2022/02/21 03:49:01;;;;;;;;;;;21.70;33.80;;;;;;484530;246;1005;-39
2022/02/21 03:51:03;;;;;;;;;;;21.70;33.80;;;;;;483987;246;2125;-39
2022/02/21 03:53:04;;;;;;;;;;;21.70;33.80;;;;;;484090;246;1212;-39
2022/02/21 03:55:05;;;;;;;;;;;21.70;33.80;;;;;;484460;246;1065;-39
2022/02/21 03:57:07;;;;;;;;;;;21.70;33.80;;;;;;483943;246;1722;-39
2022/02/21 03:59:08;;;;;;;;;;;21.70;33.80;;;;;;484045;246;1198;-39
2022/02/21 04:01:09;;;;;;;;;;;21.70;33.80;;;;;;484463;246;1207;-39
2022/02/21 04:03:11;;;;;;;;;;;21.80;33.80;;;;;;484334;246;1240;-39
2022/02/21 04:05:14;;;;;;;;;;;21.70;33.70;;;;;;484532;246;1044;-39
2022/02/21 04:07:13;;;;;;;;;;;21.70;33.80;;;;;;483755;246;2225;-39
2022/02/21 04:09:14;;;;;;;;;;;21.70;33.90;;;;;;484142;246;1682;-39
2022/02/21 04:11:16;;;;;;;;;;;21.70;33.80;;;;;;484414;246;2232;-39
2022/02/21 04:13:17;;;;;;;;;;;21.70;33.80;;;;;;484147;246;1317;-39
2022/02/21 04:15:18;;;;;;;;;;;21.70;33.80;;;;;;484039;246;1288;-39
2022/02/21 04:17:20;;;;;;;;;;;21.70;33.80;;;;;;484443;246;1313;-39
2022/02/21 04:19:21;;;;;;;;;;;21.70;33.80;;;;;;484474;246;1118;-39
2022/02/21 04:21:22;;;;;;;;;;;21.70;33.90;;;;;;483929;246;1280;-39
2022/02/21 04:23:24;;;;;;;;;;;21.70;33.90;;;;;;484154;246;1157;-39
2022/02/21 04:25:25;;;;;;;;;;;21.70;33.90;;;;;;484114;246;1028;-39
2022/02/21 04:27:26;;;;;;;;;;;21.70;33.80;;;;;;484028;246;1426;-39
2022/02/21 04:29:28;;;;;;;;;;;21.70;33.80;;;;;;484519;246;1029;-39
2022/02/21 04:31:29;;;;;;;;;;;21.70;33.80;;;;;;484037;246;2184;-40
2022/02/21 04:33:30;;;;;;;;;;;21.70;33.80;;;;;;484045;246;1357;-39
2022/02/21 04:35:32;;;;;;;;;;;21.70;33.90;;;;;;484051;246;1022;-39
2022/02/21 04:37:33;;;;;;;;;;;21.70;33.90;;;;;;484387;246;1237;-39
2022/02/21 04:39:34;;;;;;;;;;;21.70;33.90;;;;;;484471;246;1068;-39
2022/02/21 04:41:36;;;;;;;;;;;21.70;33.90;;;;;;484446;246;1189;-39
2022/02/21 04:43:37;;;;;;;;;;;21.70;33.90;;;;;;484488;246;1027;-39
2022/02/21 04:45:38;;;;;;;;;;;21.70;33.90;;;;;;484055;246;1213;-39
2022/02/21 04:47:39;;;;;;;;;;;21.70;33.90;;;;;;484446;246;1265;-39
2022/02/21 04:49:41;;;;;;;;;;;21.70;33.80;;;;;;484415;246;1221;-39
2022/02/21 04:51:43;;;;;;;;;;;21.70;33.90;;;;;;484411;246;2195;-39
2022/02/21 04:53:44;;;;;;;;;;;21.70;33.90;;;;;;484125;246;1228;-39
2022/02/21 04:55:45;;;;;;;;;;;21.70;33.90;;;;;;484456;246;1120;-39
2022/02/21 04:57:47;;;;;;;;;;;21.70;33.90;;;;;;484020;246;1062;-39
2022/02/21 04:59:48;;;;;;;;;;;21.70;34.00;;;;;;483958;246;1078;-39
2022/02/21 05:01:49;;;;;;;;;;;21.70;33.90;;;;;;484031;246;1248;-39
2022/02/21 05:03:51;;;;;;;;;;;21.70;33.90;;;;;;484476;246;1056;-39
2022/02/21 05:05:52;;;;;;;;;;;21.70;33.80;;;;;;484418;246;1185;-39
2022/02/21 05:07:53;;;;;;;;;;;21.70;33.90;;;;;;484136;246;1293;-39
2022/02/21 05:09:55;;;;;;;;;;;21.70;33.90;;;;;;484286;246;1093;-39
2022/02/21 05:11:56;;;;;;;;;;;21.70;33.80;;;;;;483936;246;2185;-39
2022/02/21 05:13:57;;;;;;;;;;;21.70;33.80;;;;;;484409;246;1091;-39
2022/02/21 05:15:59;;;;;;;;;;;21.70;33.80;;;;;;484390;246;1146;-39
2022/02/21 05:18:00;;;;;;;;;;;21.70;33.80;;;;;;484373;246;1203;-39
2022/02/21 05:20:01;;;;;;;;;;;21.70;33.80;;;;;;483955;246;1182;-39
2022/02/21 05:22:03;;;;;;;;;;;21.70;33.90;;;;;;483961;246;1208;-39
2022/02/21 05:24:04;;;;;;;;;;;21.70;33.80;;;;;;483965;246;1205;-39
2022/02/21 05:26:05;;;;;;;;;;;21.70;33.80;;;;;;484352;242;1407;-39
2022/02/21 05:28:06;;;;;;;;;;;21.70;33.80;;;;;;484159;246;1232;-39
2022/02/21 05:30:08;;;;;;;;;;;21.70;33.70;;;;;;483904;246;2200;-39
2022/02/21 05:32:10;;;;;;;;;;;21.80;33.70;;;;;;483816;246;1212;-39
2022/02/21 05:34:10;;;;;;;;;;;21.70;33.70;;;;;;484347;246;2389;-39
2022/02/21 05:36:12;;;;;;;;;;;21.70;33.70;;;;;;484136;242;1134;-39
2022/02/21 05:38:13;;;;;;;;;;;21.70;33.80;;;;;;483939;246;1215;-39
2022/02/21 05:40:14;;;;;;;;;;;21.70;33.70;;;;;;484233;246;1069;-39
2022/02/21 05:42:16;;;;;;;;;;;21.70;33.70;;;;;;483865;246;1229;-39
2022/02/21 05:44:17;;;;;;;;;;;21.70;33.70;;;;;;483875;246;1040;-39
2022/02/21 05:46:18;;;;;;;;;;;21.70;33.70;;;;;;484017;246;1119;-39
2022/02/21 05:48:20;;;;;;;;;;;21.70;33.70;;;;;;483895;246;1064;-39
2022/02/21 05:50:21;;;;;;;;;;;21.70;33.70;;;;;;484350;246;2192;-39
2022/02/21 05:52:22;;;;;;;;;;;21.80;33.70;;;;;;483947;246;1155;-39
2022/02/21 05:54:24;;;;;;;;;;;21.80;33.70;;;;;;483719;246;1194;-39
2022/02/21 05:56:25;;;;;;;;;;;21.80;33.70;;;;;;483772;246;1214;-39
2022/02/21 05:58:26;;;;;;;;;;;21.80;33.70;;;;;;484214;246;1539;-39
2022/02/21 06:00:28;;;;;;;;;;;21.80;33.70;;;;;;483730;246;1055;-39
2022/02/21 06:02:29;;;;;;;;;;;21.70;33.70;;;;;;483659;246;1164;-39
2022/02/21 06:04:30;;;;;;;;;;;21.70;33.70;;;;;;483829;246;1108;-39
2022/02/21 06:06:32;;;;;;;;;;;21.80;33.80;;;;;;483830;246;1227;-39
2022/02/21 06:08:33;;;;;;;;;;;21.80;33.70;;;;;;483782;246;1326;-39
2022/02/21 06:10:34;;;;;;;;;;;21.70;33.70;;;;;;483813;246;2188;-39
2022/02/21 06:12:36;;;;;;;;;;;21.70;33.70;;;;;;483830;246;1175;-39
2022/02/21 06:14:37;;;;;;;;;;;21.70;33.80;;;;;;483840;246;1024;-39
2022/02/21 06:16:40;;;;;;;;;;;21.70;33.80;;;;;;484158;246;1233;-39
2022/02/21 06:18:40;;;;;;;;;;;21.80;33.80;;;;;;483843;246;1638;-39
2022/02/21 06:20:41;;;;;;;;;;;21.70;33.80;;;;;;483703;246;1070;-39
2022/02/21 06:22:43;;;;;;;;;;;21.70;33.80;;;;;;484095;246;1199;-39
2022/02/21 06:24:44;;;;;;;;;;;21.80;33.80;;;;;;483757;246;1207;-39
2022/02/21 06:26:46;;;;;;;;;;;21.80;33.80;;;;;;483878;246;1295;-39
2022/02/21 06:28:47;;;;;;;;;;;21.70;33.80;;;;;;484064;246;1040;-39
2022/02/21 06:30:48;;;;;;;;;;;21.80;33.80;;;;;;483862;246;2208;-39
2022/02/21 06:32:50;;;;;;;;;;;21.70;33.70;;;;;;483859;246;1087;-39
2022/02/21 06:34:51;;;;;;;;;;;21.70;33.80;;;;;;484014;246;1089;-39
2022/02/21 06:36:52;;;;;;;;;;;21.70;33.80;;;;;;484023;246;1244;-39
2022/02/21 06:38:54;;;;;;;;;;;21.70;33.80;;;;;;483818;246;1140;-39
2022/02/21 06:40:55;;;;;;;;;;;21.70;33.80;;;;;;484012;246;1242;-39
2022/02/21 06:42:56;;;;;;;;;;;21.80;33.80;;;;;;483779;246;1125;-39
2022/02/21 06:44:58;;;;;;;;;;;21.80;33.80;;;;;;483693;246;1138;-39
2022/02/21 06:46:59;;;;;;;;;;;21.70;33.80;;;;;;483530;246;1212;-39
2022/02/21 06:49:00;;;;;;;;;;;21.70;33.80;;;;;;483739;246;1088;-39
2022/02/21 06:51:02;;;;;;;;;;;21.70;33.80;;;;;;483491;246;2196;-39
2022/02/21 06:53:03;;;;;;;;;;;21.80;33.80;;;;;;483513;246;1144;-39
2022/02/21 06:55:05;;;;;;;;;;;21.80;33.70;;;;;;483566;246;1201;-39
2022/02/21 06:57:06;;;;;;;;;;;21.70;33.80;;;;;;483547;246;1315;-39
2022/02/21 06:59:07;;;;;;;;;;;21.70;33.70;;;;;;483496;246;1183;-39
2022/02/21 07:01:08;;;;;;;;;;;21.70;33.80;;;;;;483714;246;1515;-39
2022/02/21 07:03:10;;;;;;;;;;;21.80;33.80;;;;;;483936;246;1239;-39
2022/02/21 07:05:11;;;;;;;;;;;21.80;33.80;;;;;;483625;246;1228;-39
2022/02/21 07:07:13;;;;;;;;;;;21.80;33.70;;;;;;483558;246;1175;-39
2022/02/21 07:09:14;;;;;;;;;;;21.80;33.80;;;;;;483705;246;1234;-39
2022/02/21 07:11:15;;;;;;;;;;;21.80;33.70;;;;;;483620;246;2130;-39
2022/02/21 07:13:16;;;;;;;;;;;21.80;33.80;;;;;;484065;246;1087;-39
2022/02/21 07:15:18;;;;;;;;;;;21.80;33.70;;;;;;483610;246;1240;-39
2022/02/21 07:17:19;;;;;;;;;;;21.70;33.70;;;;;;483494;246;1053;-39
2022/02/21 07:19:20;;;;;;;;;;;21.80;33.70;;;;;;483663;246;1086;-39
2022/02/21 07:21:22;;;;;;;;;;;21.80;33.70;;;;;;483570;246;1125;-39
2022/02/21 07:23:23;;;;;;;;;;;21.80;33.60;;;;;;483699;246;1347;-39
2022/02/21 07:25:24;;;;;;;;;;;21.80;33.60;;;;;;483492;246;1192;-39
2022/02/21 07:27:26;;;;;;;;;;;21.80;33.60;;;;;;483550;246;1221;-39
2022/02/21 07:29:27;;;;;;;;;;;21.80;33.70;;;;;;483581;246;1032;-39
2022/02/21 07:31:29;;;;;;;;;;;21.80;33.70;;;;;;483382;246;2137;-39
2022/02/21 07:33:30;;;;;;;;;;;21.80;33.70;;;;;;483382;246;1111;-40
2022/02/21 07:35:31;;;;;;;;;;;21.80;33.60;;;;;;483383;246;1065;-39
2022/02/21 07:37:33;;;;;;;;;;;21.80;33.60;;;;;;483291;246;1206;-39
2022/02/21 07:39:34;;;;;;;;;;;21.80;33.60;;;;;;483561;246;1213;-39
2022/02/21 07:41:35;;;;;;;;;;;21.80;33.50;;;;;;483460;246;1287;-39
2022/02/21 07:43:37;;;;;;;;;;;21.80;33.50;;;;;;483383;246;1396;-39
2022/02/21 07:45:38;;;;;;;;;;;21.80;33.60;;;;;;483456;246;1195;-39
2022/02/21 07:47:39;;;;;;;;;;;21.80;33.50;;;;;;483355;246;1198;-39
2022/02/21 07:49:40;;;;;;;;;;;21.80;33.50;;;;;;483361;246;1157;-39
2022/02/21 07:51:42;;;;;;;;;;;21.80;33.50;;;;;;483236;246;2184;-39
2022/02/21 07:53:43;;;;;;;;;;;21.80;33.60;;;;;;483359;246;1094;-39
2022/02/21 07:55:46;;;;;;;;;;;21.80;33.60;;;;;;483462;246;1218;-39
2022/02/21 07:57:46;;;;;;;;;;;21.80;33.50;;;;;;483248;246;2439;-39
2022/02/21 07:59:48;;;;;;;;;;;21.80;33.50;;;;;;483412;246;1187;-39
2022/02/21 08:01:49;;;;;;;;;;;21.80;33.50;;;;;;483317;246;1226;-39
2022/02/21 08:03:50;;;;;;;;;;;21.80;33.50;;;;;;483045;246;1114;-39
2022/02/21 08:05:55;;;;;;;;;;;21.80;33.50;;;;;;483219;246;1327;-39
2022/02/21 08:07:53;;;;;;;;;;;21.80;33.50;;;;;;482916;246;1909;-39
2022/02/21 08:09:54;;;;;;;;;;;21.80;33.60;;;;;;483165;246;1130;-39
2022/02/21 08:11:56;;;;;;;;;;;21.80;33.50;;;;;;483267;246;2216;-39
2022/02/21 08:13:58;;;;;;;;;;;21.80;33.50;;;;;;483224;246;1061;-39
2022/02/21 08:15:58;;;;;;;;;;;21.80;33.50;;;;;;483080;246;1345;-39
2022/02/21 08:18:00;;;;;;;;;;;21.80;33.50;;;;;;483921;246;1115;-39
2022/02/21 08:20:01;;;;;;;;;;;21.80;33.40;;;;;;483544;246;834;-39
2022/02/21 08:22:02;;;;;;;;;;;21.80;33.50;;;;;;483457;246;1120;-39
2022/02/21 08:24:04;;;;;;;;;;;21.80;33.40;;;;;;483950;246;835;-39
2022/02/21 08:26:05;;;;;;;;;;;21.80;33.40;;;;;;483551;246;1276;-39
2022/02/21 08:28:06;;;;;;;;;;;21.80;33.40;;;;;;483843;246;1367;-39
2022/02/21 08:30:07;;;;;;;;;;;21.80;33.40;;;;;;483393;246;1098;-40
2022/02/21 08:32:09;;;;;;;;;;;21.80;33.40;;;;;;483093;246;2196;-39
2022/02/21 08:34:10;;;;;;;;;;;21.80;33.40;;;;;;483025;246;1315;-39
2022/02/21 08:36:11;;;;;;;;;;;21.80;33.40;;;;;;483222;246;1294;-39
2022/02/21 08:38:13;;;;;;;;;;;21.80;33.40;;;;;;483589;246;1007;-39
2022/02/21 08:40:14;;;;;;;;;;;21.80;33.40;;;;;;483501;246;1434;-39
2022/02/21 08:42:15;;;;;;;;;;;21.80;33.40;;;;;;483253;246;1331;-39
2022/02/21 08:44:17;;;;;;;;;;;21.80;33.40;;;;;;483292;246;1083;-39
2022/02/21 08:46:18;;;;;;;;;;;21.80;33.40;;;;;;483130;246;1365;-39
2022/02/21 08:48:19;;;;;;;;;;;21.80;33.30;;;;;;483186;246;1072;-39
2022/02/21 08:50:21;;;;;;;;;;;21.80;33.40;;;;;;483173;246;1155;-39
2022/02/21 08:52:22;;;;;;;;;;;21.80;33.30;;;;;;483252;246;2191;-39
2022/02/21 08:54:23;;;;;;;;;;;21.80;33.30;;;;;;483330;246;1079;-39
2022/02/21 08:56:25;;;;;;;;;;;21.80;33.30;;;;;;483185;246;1192;-39
2022/02/21 08:58:27;;;;;;;;;;;21.80;33.40;;;;;;483034;246;1102;-39
2022/02/21 09:00:28;;;;;;;;;;;21.80;33.40;;;;;;483020;246;1316;-39
2022/02/21 09:02:29;;;;;;;;;;;21.80;33.40;;;;;;482762;246;968;-39
2022/02/21 09:04:30;;;;;;;;;;;21.80;33.30;;;;;;482455;247;871;-39
2022/02/21 09:06:32;;;;;;;;;;;21.80;33.30;;;;;;482877;246;1083;-39
2022/02/21 09:08:33;;;;;;;;;;;21.80;33.30;;;;;;482627;246;1053;-39
2022/02/21 09:10:34;;;;;;;;;;;21.80;33.30;;;;;;482340;247;1354;-39
2022/02/21 09:12:36;;;;;;;;;;;21.70;33.30;;;;;;482696;246;2184;-39
2022/02/21 09:14:38;;;;;;;;;;;21.80;33.30;;;;;;483247;246;1305;-39
2022/02/21 09:16:39;;;;;;;;;;;21.80;33.30;;;;;;482172;246;1931;-39
2022/02/21 09:18:40;;;;;;;;;;;21.80;33.30;;;;;;482477;246;1065;-39
2022/02/21 09:20:41;;;;;;;;;;;21.80;33.20;;;;;;482955;246;1212;-39
2022/02/21 09:22:43;;;;;;;;;;;21.80;33.20;;;;;;483187;246;1095;-39
2022/02/21 09:24:44;;;;;;;;;;;21.80;33.20;;;;;;483200;246;1140;-39
2022/02/21 09:26:45;;;;;;;;;;;21.80;33.30;;;;;;483133;246;1222;-39
2022/02/21 09:28:46;;;;;;;;;;;21.80;33.20;;;;;;483310;246;1216;-39
2022/02/21 09:30:48;;;;;;;;;;;21.90;33.20;;;;;;483247;246;1068;-39
2022/02/21 09:32:50;;;;;;;;;;;21.90;33.10;;;;;;483382;246;2129;-39
2022/02/21 09:34:52;;;;;;;;;;;21.90;33.10;;;;;;483432;246;1160;-39
2022/02/21 09:36:52;;;;;;;;;;;21.90;33.10;;;;;;483118;246;1429;-39
2022/02/21 09:38:53;;;;;;;;;;;21.90;33.10;;;;;;483290;246;1060;-39
2022/02/21 09:40:56;;;;;;;;;;;21.80;33.10;;;;;;483105;246;1093;-39
2022/02/21 09:42:59;;;;;;;;;;;21.80;33.10;;;;;;483106;246;2257;-39
2022/02/21 09:44:58;;;;;;;;;;;21.80;33.10;;;;;;483081;246;2034;-39
2022/02/21 09:47:00;;;;;;;;;;;21.80;33.10;;;;;;483171;246;1135;-39
2022/02/21 09:49:01;;;;;;;;;;;21.80;33.10;;;;;;483216;246;1354;-39
2022/02/21 09:51:02;;;;;;;;;;;21.80;33.10;;;;;;483135;246;1251;-39
2022/02/21 09:53:04;;;;;;;;;;;21.80;33.10;;;;;;483043;246;2132;-39
2022/02/21 09:55:05;;;;;;;;;;;21.80;33.10;;;;;;483126;246;1393;-39
2022/02/21 09:57:07;;;;;;;;;;;21.80;33.10;;;;;;483354;246;1408;-39
2022/02/21 09:59:07;;;;;;;;;;;21.80;33.10;;;;;;483966;246;2175;-40
2022/02/21 10:01:09;;;;;;;;;;;21.80;33.10;;;;;;483836;246;1195;-39
2022/02/21 10:03:10;;;;;;;;;;;21.80;33.10;;;;;;483194;246;1132;-39
2022/02/21 10:05:11;;;;;;;;;;;21.70;33.10;;;;;;483252;246;1111;-39
2022/02/21 10:07:13;;;;;;;;;;;21.70;33.00;;;;;;483106;246;1230;-39
2022/02/21 10:09:15;;;;;;;;;;;21.80;33.10;;;;;;483200;246;1185;-39
2022/02/21 10:11:16;;;;;;;;;;;21.70;33.00;;;;;;482989;246;2333;-39
2022/02/21 10:13:17;;;;;;;;;;;21.80;33.00;;;;;;483157;246;2157;-39
2022/02/21 10:15:18;;;;;;;;;;;21.80;33.00;;;;;;483013;246;1071;-39
2022/02/21 10:17:19;;;;;;;;;;;21.70;32.90;;;;;;483030;246;1210;-39
2022/02/21 10:19:21;;;;;;;;;;;21.80;33.00;;;;;;483180;246;1202;-39
2022/02/21 10:21:22;;;;;;;;;;;21.80;33.00;;;;;;483068;246;1309;-39
2022/02/21 10:23:23;;;;;;;;;;;21.80;32.90;;;;;;483110;246;1277;-39
2022/02/21 10:25:25;;;;;;;;;;;21.80;32.80;;;;;;483233;246;1133;-39
2022/02/21 10:27:28;;;;;;;;;;;21.80;32.90;;;;;;483202;246;1460;-39
2022/02/21 10:29:28;;;;;;;;;;;21.80;32.90;;;;;;483489;246;2225;-39
2022/02/21 10:31:29;;;;;;;;;;;21.80;32.80;;;;;;483142;246;1413;-39
2022/02/21 10:33:30;;;;;;;;;;;21.80;32.80;;;;;;483931;246;2188;-39
2022/02/21 10:35:32;;;;;;;;;;;21.80;32.80;;;;;;483388;246;1164;-39
2022/02/21 10:37:33;;;;;;;;;;;21.80;32.80;;;;;;483291;245;1564;-39
2022/02/21 10:39:35;;;;;;;;;;;21.80;32.80;;;;;;483471;246;1138;-39
2022/02/21 10:41:36;;;;;;;;;;;21.70;32.80;;;;;;483268;246;1465;-39
2022/02/21 10:43:38;;;;;;;;;;;21.70;32.80;;;;;;483142;246;1571;-39
2022/02/21 10:45:39;;;;;;;;;;;21.70;32.70;;;;;;483097;246;2098;-39
2022/02/21 10:47:40;;;;;;;;;;;21.80;32.70;;;;;;483229;246;1272;-39
2022/02/21 10:49:41;;;;;;;;;;;21.80;32.70;;;;;;483226;246;1224;-39
2022/02/21 10:51:43;;;;;;;;;;;21.80;32.60;;;;;;483198;246;1433;-39
2022/02/21 10:53:45;;;;;;;;;;;21.80;32.60;;;;;;483027;246;2207;-39
2022/02/21 10:55:46;;;;;;;;;;;21.80;32.60;;;;;;483248;246;1399;-39
2022/02/21 10:57:47;;;;;;;;;;;21.80;32.60;;;;;;483421;246;1287;-39
2022/02/21 10:59:49;;;;;;;;;;;21.70;32.60;;;;;;483434;246;1061;-39
2022/02/21 11:01:50;;;;;;;;;;;21.70;32.70;;;;;;483327;246;1147;-39
2022/02/21 11:03:51;;;;;;;;;;;21.70;32.60;;;;;;483089;246;1214;-39
2022/02/21 11:05:53;;;;;;;;;;;21.70;32.60;;;;;;483092;246;1200;-39
2022/02/21 11:07:54;;;;;;;;;;;21.80;32.60;;;;;;483343;246;1184;-39
2022/02/21 11:09:58;;;;;;;;;;;21.80;32.50;;;;;;483268;246;1057;-39
2022/02/21 11:11:58;;;;;;;;;;;21.80;32.40;;;;;;483206;246;1986;-39
2022/02/21 11:13:59;;;;;;;;;;;21.80;32.40;;;;;;483143;246;2172;-39
2022/02/21 11:16:00;;;;;;;;;;;21.80;32.40;;;;;;483248;246;1410;-39
2022/02/21 11:18:02;;;;;;;;;;;21.80;32.40;;;;;;483005;246;1057;-39
2022/02/21 11:20:03;;;;;;;;;;;21.80;32.40;;;;;;483093;246;1179;-39
2022/02/21 11:22:04;;;;;;;;;;;21.80;32.40;;;;;;483173;246;1107;-39
2022/02/21 11:24:05;;;;;;;;;;;21.70;32.40;;;;;;483273;246;1614;-39
2022/02/21 11:26:07;;;;;;;;;;;21.70;32.40;;;;;;483281;246;1033;-39
2022/02/21 11:28:08;;;;;;;;;;;21.70;32.40;;;;;;483393;246;1155;-39
2022/02/21 11:30:10;;;;;;;;;;;21.70;32.40;;;;;;483246;246;1110;-39
2022/02/21 11:32:11;;;;;;;;;;;21.70;32.40;;;;;;483230;246;1295;-39
2022/02/21 11:34:12;;;;;;;;;;;21.70;32.40;;;;;;483218;246;2177;-40
2022/02/21 11:36:14;;;;;;;;;;;21.80;32.30;;;;;;483204;246;1194;-39
2022/02/21 11:38:15;;;;;;;;;;;21.80;32.30;;;;;;483181;246;1070;-39
2022/02/21 11:40:17;;;;;;;;;;;21.80;32.20;;;;;;483318;246;1071;-39
2022/02/21 11:42:19;;;;;;;;;;;21.70;32.20;;;;;;483194;246;1242;-39
2022/02/21 11:44:20;;;;;;;;;;;21.70;32.30;;;;;;483212;246;2012;-39
2022/02/21 11:46:21;;;;;;;;;;;21.70;32.30;;;;;;483153;246;1518;-39
2022/02/21 11:48:22;;;;;;;;;;;21.70;32.30;;;;;;482937;246;1077;-39
2022/02/21 11:50:25;;;;;;;;;;;21.80;32.30;;;;;;483081;246;1107;-39
2022/02/21 11:52:26;;;;;;;;;;;21.70;32.20;;;;;;483561;246;2188;-39
2022/02/21 11:54:28;;;;;;;;;;;21.70;32.20;;;;;;483325;246;1089;-39
2022/02/21 11:56:29;;;;;;;;;;;21.70;32.20;;;;;;483110;243;1351;-39